KCKB/CKB METAR and TAF weather

Enter ICAO airport designator
Station Type Date Time Source
KCKB METAR 2018/10/21 03:53 UTC NOAA

KCKB 210353Z AUTO 29013G22KT 10SM FEW031 BKN038 OVC100 07/02 A2991 RMK AO2 SLP124 T00720017


Station Type Date Time Source
KCKB Decoded METAR 2018/10/21 03:53 UTC NOAA

HARRISON/MARION REGIONAL, WV, United States (KCKB) 39-18N 080-13W 360M
Oct 20, 2018 - 11:53 PM EDT / 2018.10.21 0353 UTC
Wind: from the WNW (290 degrees) at 15 MPH (13 KT) gusting to 25 MPH (22 KT):0
Visibility: 10 mile(s):0
Sky conditions: overcast
Temperature: 45.0 F (7.2 C)
Dew Point: 35.1 F (1.7 C)
Relative Humidity: 68%
Pressure (altimeter): 29.91 in. Hg (1012 hPa)
ob: KCKB 210353Z AUTO 29013G22KT 10SM FEW031 BKN038 OVC100 07/02 A2991 RMK AO2 SLP124 T00720017
cycle: 4

Station Type Date Time Source
KCKB TAF 2018/10/21 03:39 UTC NOAA

TAF
AMD KCKB 210236Z 2103/2124 28012G25KT P6SM VCSH SCT035 BKN050
FM210400 29015G30KT P6SM VCSH SCT015 BKN025
FM210900 30010G20KT P6SM SCT015 BKN025
FM211800 29009KT P6SM SCT030


Example: see airport list